Time;durP1;ratioP1;P1;durP2;ratioP2;P2;SDS_P1;SDS_P2;PMS_P1;PMS_P2;Temp;Humidity;BMP_temperature;BMP_pressure;BME280_temperature;BME280_humidity;BME280_pressure;Samples;Min_cycle;Max_cycle;Signal;HPM_P1;HPM_P2
2024/03/05 00:01:00;;;;;;;33.42;23.10;;;;;;;10.84;72.33;99496.41;4166830;28;20045;-70
2024/03/05 00:03:00;;;;;;;36.42;23.27;;;;;;;10.88;72.12;99488.91;4165721;28;20037;-69
2024/03/05 00:05:03;;;;;;;32.50;21.08;;;;;;;10.96;71.86;99488.94;4166281;28;20021;-69
2024/03/05 00:07:04;;;;;;;27.08;18.90;;;;;;;11.03;71.86;99483.78;4165963;28;20033;-70
2024/03/05 00:09:05;;;;;;;;;;;;;;;10.96;71.70;99486.28;4166058;28;20025;-69
2024/03/05 00:11:05;;;;;;;33.20;21.27;;;;;;;10.89;72.01;99477.22;4165975;28;19909;-69
2024/03/05 00:13:07;;;;;;;33.63;20.73;;;;;;;10.90;71.88;99482.44;4168795;28;20031;-69
2024/03/05 00:15:08;;;;;;;28.17;18.83;;;;;;;10.96;71.66;99488.94;4174030;28;20052;-69
2024/03/05 00:17:09;;;;;;;33.15;22.45;;;;;;;10.92;71.86;99488.44;4173869;28;20103;-69
2024/03/05 00:19:09;;;;;;;;;;;;;;;10.92;71.92;99484.94;4174218;28;20036;-69
2024/03/05 00:21:10;;;;;;;33.87;21.00;;;;;;;10.96;71.71;99486.28;4174402;28;19958;-70
2024/03/05 00:23:12;;;;;;;34.65;22.65;;;;;;;10.93;71.73;99503.47;4173814;28;20090;-70
2024/03/05 00:25:13;;;;;;;32.78;21.08;;;;;;;10.97;71.42;99495.97;4174250;28;20612;-69
2024/03/05 00:27:14;;;;;;;34.10;21.77;;;;;;;10.88;71.63;99495.13;4174297;28;20436;-70
2024/03/05 00:29:15;;;;;;;37.33;25.00;;;;;;;10.83;72.10;99499.25;4183664;28;20029;-70
2024/03/05 00:31:15;;;;;;;33.65;22.13;;;;;;;10.83;72.03;99492.06;4180210;28;20556;-70
2024/03/05 00:33:15;;;;;;;36.22;24.92;;;;;;;10.72;72.25;99495.88;4183729;28;20071;-70
2024/03/05 00:35:16;;;;;;;31.80;21.77;;;;;;;10.84;71.80;99498.28;4183681;28;20024;-70
2024/03/05 00:37:16;;;;;;;34.20;22.15;;;;;;;10.89;71.67;99495.94;4182017;28;20264;-70
2024/03/05 00:39:17;;;;;;;32.97;20.85;;;;;;;10.92;71.67;99499.13;4185221;28;20551;-70
2024/03/05 00:41:18;;;;;;;31.33;20.00;;;;;;;10.92;71.55;99498.31;4177480;28;20021;-69
2024/03/05 00:43:18;;;;;;;33.17;21.65;;;;;;;10.97;71.23;99495.97;4172757;28;20108;-70
2024/03/05 00:45:21;;;;;;;34.83;22.30;;;;;;;10.87;71.66;99498.78;4174435;28;20036;-70
2024/03/05 00:47:22;;;;;;;39.88;24.15;;;;;;;10.60;72.42;99497.97;4173324;28;20023;-71
2024/03/05 00:49:23;;;;;;;39.58;24.13;;;;;;;10.61;72.44;99496.13;4173576;28;20973;-70
2024/03/05 00:51:23;;;;;;;34.30;21.52;;;;;;;10.77;72.00;99500.75;4173766;28;20037;-70
2024/03/05 00:53:24;;;;;;;35.10;21.98;;;;;;;10.84;71.62;99500.94;4181070;28;20082;-70
2024/03/05 00:55:24;;;;;;;30.08;19.05;;;;;;;10.86;71.45;99497.09;4170291;28;20040;-70
2024/03/05 00:57:25;;;;;;;31.20;20.48;;;;;;;10.92;71.26;99503.66;4173305;28;20090;-70
2024/03/05 00:59:26;;;;;;;32.80;21.95;;;;;;;10.82;71.49;99503.75;4174117;28;20026;-70
2024/03/05 01:01:26;;;;;;;36.30;23.20;;;;;;;10.69;72.00;99498.84;4180059;28;20045;-70
2024/03/05 01:03:26;;;;;;;35.10;21.02;;;;;;;10.84;71.46;99500.94;4184083;28;20029;-70
2024/03/05 01:05:27;;;;;;;36.95;22.10;;;;;;;10.69;71.86;99493.50;4175238;28;20021;-70
2024/03/05 01:07:28;;;;;;;40.17;24.38;;;;;;;10.61;72.39;99502.34;4172849;28;20021;-70
2024/03/05 01:09:28;;;;;;;34.90;22.42;;;;;;;10.74;71.90;99496.56;4172435;28;20087;-70
2024/03/05 01:11:29;;;;;;;37.70;21.33;;;;;;;10.71;72.07;99486.16;4181179;28;20028;-70
2024/03/05 01:13:30;;;;;;;43.40;25.30;;;;;;;10.63;72.19;99496.00;4174119;28;20109;-70
2024/03/05 01:15:30;;;;;;;44.42;29.17;;;;;;;10.42;72.89;99499.88;4173445;28;20104;-70
2024/03/05 01:17:32;;;;;;;48.53;31.35;;;;;;;10.33;73.31;99498.94;4177060;28;20029;-69
2024/03/05 01:19:32;;;;;;;46.60;30.38;;;;;;;10.31;73.50;99503.59;4173045;28;20037;-69
2024/03/05 01:21:33;;;;;;;41.58;28.48;;;;;;;10.37;73.20;99496.78;4171756;28;20439;-69
2024/03/05 01:23:33;;;;;;;44.03;28.15;;;;;;;10.31;73.47;99500.94;4172330;28;20098;-69
2024/03/05 01:25:34;;;;;;;45.08;26.33;;;;;;;10.30;73.60;99494.75;4171683;28;20025;-68
2024/03/05 01:27:34;;;;;;;36.60;23.65;;;;;;;10.57;72.71;99498.28;4172222;28;20025;-69
2024/03/05 01:29:34;;;;;;;32.67;21.60;;;;;;;10.60;72.60;99497.13;4171116;28;20466;-69
2024/03/05 01:31:36;;;;;;;37.83;24.15;;;;;;;10.59;72.54;99495.44;4171500;28;20052;-69
2024/03/05 01:33:37;;;;;;;34.40;21.45;;;;;;;10.59;72.35;99493.63;4172423;28;20025;-69
2024/03/05 01:35:37;;;;;;;42.60;25.00;;;;;;;10.55;72.63;99494.94;4172440;28;20052;-70
2024/03/05 01:37:39;;;;;;;40.28;24.83;;;;;;;10.48;72.75;99495.75;4172574;28;20424;-68
2024/03/05 01:39:39;;;;;;;42.72;27.05;;;;;;;10.48;72.96;99499.25;4172866;28;20393;-69
2024/03/05 01:41:39;;;;;;;49.20;32.83;;;;;;;10.42;73.06;99492.69;4172331;28;20029;-70
2024/03/05 01:43:40;;;;;;;43.92;29.98;;;;;;;10.39;73.12;99497.50;4167317;28;20025;-70
2024/03/05 01:45:42;;;;;;;48.17;29.50;;;;;;;10.28;73.59;99496.75;4177945;28;20071;-69
2024/03/05 01:47:44;;;;;;;43.38;27.08;;;;;;;10.32;73.51;99502.59;4171830;28;20040;-70
2024/03/05 01:49:44;;;;;;;43.65;26.13;;;;;;;10.26;73.66;99501.38;4166733;28;20041;-70
2024/03/05 01:51:45;;;;;;;40.22;25.08;;;;;;;10.24;73.93;99513.25;4164126;28;20037;-70
2024/03/05 01:53:46;;;;;;;46.60;27.50;;;;;;;10.17;74.11;99506.84;4163505;28;20363;-70
2024/03/05 01:55:48;;;;;;;43.83;25.05;;;;;;;10.20;74.12;99510.03;4163772;28;20030;-69
2024/03/05 01:57:51;;;;;;;38.55;24.85;;;;;;;10.35;73.53;99513.00;4164160;28;20497;-71
2024/03/05 01:59:51;;;;;;;42.53;25.52;;;;;;;10.35;73.66;99506.78;4163810;28;20060;-70
2024/03/05 02:01:52;;;;;;;46.60;26.48;;;;;;;10.28;73.85;99509.28;4164110;28;20054;-70
2024/03/05 02:03:53;;;;;;;;;;;;;;;10.25;73.99;99513.06;4164421;28;20387;-70
2024/03/05 02:05:59;;;;;;;46.72;27.23;;;;;;;10.23;73.99;99503.53;4163979;28;19913;-70
2024/03/05 02:08:01;;;;;;;48.95;29.15;;;;;;;10.24;73.94;99505.22;4163612;28;20032;-70
2024/03/05 02:10:07;;;;;;;42.25;25.45;;;;;;;10.33;73.86;99512.31;4163097;28;20083;-70
2024/03/05 02:12:07;;;;;;;45.90;28.02;;;;;;;10.30;74.03;99509.94;4163798;28;20027;-70
2024/03/05 02:14:10;;;;;;;44.13;26.27;;;;;;;10.34;73.93;99511.31;4169821;28;20029;-70
2024/03/05 02:16:10;;;;;;;43.20;25.77;;;;;;;10.33;73.84;99509.63;4171796;28;20037;-69
2024/03/05 02:18:12;;;;;;;43.50;26.10;;;;;;;10.32;73.92;99507.94;4181542;28;20494;-70
2024/03/05 02:20:15;;;;;;;48.22;25.77;;;;;;;10.35;74.00;99512.13;4172698;28;20081;-69
2024/03/05 02:22:16;;;;;;;44.20;26.65;;;;;;;10.28;74.26;99510.09;4170520;28;20490;-70
2024/03/05 02:24:16;;;;;;;42.08;27.58;;;;;;;10.35;73.78;99506.78;4171089;28;20017;-71
2024/03/05 02:26:17;;;;;;;46.35;28.17;;;;;;;10.32;74.11;99510.63;4171880;28;20067;-70
2024/03/05 02:28:18;;;;;;;46.15;31.17;;;;;;;10.43;73.69;99506.91;4177518;28;20485;-70
2024/03/05 02:30:20;;;;;;;49.67;33.30;;;;;;;10.43;73.67;99507.72;4171681;28;20111;-69
2024/03/05 02:32:21;;;;;;;45.42;29.38;;;;;;;10.43;73.51;99509.56;4163571;28;20096;-70
2024/03/05 02:34:21;;;;;;;;;;;;;;;10.55;73.56;99502.94;4170598;28;20540;-69
2024/03/05 02:36:22;;;;;;;41.03;26.70;;;;;;;10.56;72.86;99501.97;4171658;28;19912;-69
2024/03/05 02:38:23;;;;;;;38.10;24.73;;;;;;;10.69;72.49;99504.19;4170887;28;20630;-69
2024/03/05 02:40:24;;;;;;;37.60;23.48;;;;;;;10.67;72.77;99510.72;4161905;28;20524;-69
2024/03/05 02:42:25;;;;;;;30.23;19.60;;;;;;;10.71;72.45;99502.22;4161742;28;20026;-70
2024/03/05 02:44:26;;;;;;;32.70;21.35;;;;;;;10.75;72.29;99503.59;4165180;28;20029;-70
2024/03/05 02:46:26;;;;;;;30.75;18.83;;;;;;;10.85;72.08;99503.44;4171722;28;20142;-69
2024/03/05 02:48:27;;;;;;;27.70;18.65;;;;;;;10.90;71.77;99508.31;4166984;28;20025;-69
2024/03/05 02:50:27;;;;;;;37.25;21.80;;;;;;;10.91;71.76;99501.97;4166451;28;20038;-70
2024/03/05 02:52:28;;;;;;;38.83;22.40;;;;;;;10.89;71.82;99499.47;4179826;28;20027;-69
2024/03/05 02:54:29;;;;;;;41.10;23.17;;;;;;;10.86;71.82;99497.09;4170556;28;20028;-69
2024/03/05 02:56:30;;;;;;;35.65;22.73;;;;;;;10.84;71.88;99500.94;4171447;28;20033;-69
2024/03/05 02:58:30;;;;;;;32.80;21.20;;;;;;;10.87;71.69;99495.25;4172935;28;20048;-70
2024/03/05 03:00:31;;;;;;;35.33;20.95;;;;;;;10.86;71.67;99502.44;4172324;28;20040;-70
2024/03/05 03:02:32;;;;;;;33.53;21.08;;;;;;;10.87;71.65;99497.94;4163808;28;20056;-70
2024/03/05 03:04:32;;;;;;;33.50;21.33;;;;;;;10.88;71.51;99499.59;4163439;28;20516;-69
2024/03/05 03:06:33;;;;;;;32.42;19.65;;;;;;;10.91;71.50;99507.31;4168097;28;20642;-70
2024/03/05 03:08:33;;;;;;;37.78;22.48;;;;;;;10.81;71.80;99498.56;4170489;28;20040;-70
2024/03/05 03:10:34;;;;;;;38.05;22.55;;;;;;;10.85;71.75;99505.28;4169197;28;20033;-69
2024/03/05 03:12:34;;;;;;;39.35;24.70;;;;;;;10.88;71.55;99513.84;4177545;28;20037;-69
2024/03/05 03:14:34;;;;;;;32.03;20.10;;;;;;;10.89;71.39;99506.63;4176467;28;20033;-69
2024/03/05 03:16:35;;;;;;;35.95;21.95;;;;;;;10.85;71.35;99506.13;4162292;28;20048;-69
2024/03/05 03:18:36;;;;;;;30.25;19.92;;;;;;;10.87;71.36;99498.78;4169926;28;20061;-69
2024/03/05 03:20:36;;;;;;;33.55;19.25;;;;;;;10.86;71.21;99506.97;4171312;28;20105;-69
2024/03/05 03:22:37;;;;;;;32.20;19.58;;;;;;;10.85;71.28;99510.66;4165749;28;20071;-68
2024/03/05 03:24:37;;;;;;;31.67;20.00;;;;;;;10.87;71.28;99504.13;4170828;28;20470;-70
2024/03/05 03:26:38;;;;;;;30.20;18.38;;;;;;;10.87;71.28;99511.31;4170745;28;20154;-69
2024/03/05 03:28:39;;;;;;;34.10;20.63;;;;;;;10.81;71.51;99506.59;4171156;28;20540;-69
2024/03/05 03:30:39;;;;;;;34.28;20.40;;;;;;;10.88;71.18;99507.63;4171095;28;20025;-70
2024/03/05 03:32:40;;;;;;;31.00;19.58;;;;;;;10.87;71.14;99500.59;4170762;28;20025;-69
2024/03/05 03:34:40;;;;;;;42.55;23.85;;;;;;;10.83;71.19;99502.75;4181633;28;20052;-70
2024/03/05 03:36:42;;;;;;;36.03;21.42;;;;;;;10.75;71.35;99503.59;4186165;28;20029;-70
2024/03/05 03:38:43;;;;;;;44.33;24.15;;;;;;;10.61;71.96;99513.03;4176895;28;20029;-70
2024/03/05 03:40:44;;;;;;;42.15;26.27;;;;;;;10.47;72.55;99510.09;4175530;28;20043;-69
2024/03/05 03:42:45;;;;;;;42.25;25.95;;;;;;;10.58;72.13;99520.53;4165077;28;20049;-70
2024/03/05 03:44:46;;;;;;;42.33;24.08;;;;;;;10.66;71.68;99512.56;4162936;28;20021;-70
2024/03/05 03:46:46;;;;;;;46.10;26.33;;;;;;;10.54;72.08;99519.16;4170760;28;20132;-69
2024/03/05 03:48:47;;;;;;;44.53;25.30;;;;;;;10.52;72.17;99519.31;4169980;28;20033;-69
2024/03/05 03:50:47;;;;;;;41.83;26.10;;;;;;;10.48;72.22;99522.47;4170965;28;20087;-69
2024/03/05 03:52:48;;;;;;;42.70;26.08;;;;;;;10.49;72.19;99527.63;4160450;28;20108;-69
2024/03/05 03:54:48;;;;;;;41.25;25.95;;;;;;;10.54;72.07;99530.66;4175044;28;20110;-69
2024/03/05 03:56:50;;;;;;;41.63;24.58;;;;;;;10.55;71.91;99534.19;4179722;28;20036;-69
2024/03/05 03:58:50;;;;;;;51.65;31.20;;;;;;;10.60;71.65;99529.19;4179622;28;20047;-68
2024/03/05 04:00:51;;;;;;;79.53;44.47;;;;;;;10.51;72.07;99532.81;4179095;28;20021;-69
2024/03/05 04:02:51;;;;;;;73.30;37.55;;;;;;;10.41;72.32;99541.78;4178819;28;20032;-69
2024/03/05 04:04:52;;;;;;;111.55;60.95;;;;;;;10.39;72.50;99538.41;4178972;28;20028;-69
2024/03/05 04:06:52;;;;;;;189.32;97.93;;;;;;;10.32;72.84;99547.19;4178792;28;20029;-69
2024/03/05 04:08:53;;;;;;;192.27;95.80;;;;;;;10.26;73.08;99551.31;4178478;28;20037;-70
2024/03/05 04:10:54;;;;;;;158.07;80.82;;;;;;;10.36;72.84;99549.41;4178878;28;20632;-69
2024/03/05 04:12:54;;;;;;;138.77;69.57;;;;;;;10.32;72.86;99540.00;4179001;28;20469;-69
2024/03/05 04:14:55;;;;;;;94.22;50.05;;;;;;;10.32;72.91;99544.53;4172233;28;20071;-69
2024/03/05 04:16:55;;;;;;;70.88;38.72;;;;;;;10.37;72.84;99547.56;4170772;28;20108;-70
2024/03/05 04:18:57;;;;;;;59.95;35.00;;;;;;;10.34;72.99;99551.38;4169268;28;20072;-68
2024/03/05 04:20:57;;;;;;;53.17;31.08;;;;;;;10.25;73.28;99545.13;4170864;28;20040;-69
2024/03/05 04:22:58;;;;;;;52.35;30.20;;;;;;;10.32;73.09;99542.69;4170143;28;20028;-70
2024/03/05 04:24:59;;;;;;;49.63;29.10;;;;;;;10.37;72.82;99543.09;4173433;28;20481;-70
2024/03/05 04:27:03;;;;;;;48.45;27.95;;;;;;;10.40;72.79;99548.13;4170863;28;20047;-69
2024/03/05 04:29:06;;;;;;;45.40;27.20;;;;;;;10.33;73.02;99547.03;4170409;28;20033;-69
2024/03/05 04:31:09;;;;;;;44.92;26.33;;;;;;;10.23;73.54;99544.47;4170865;28;20100;-69
2024/03/05 04:33:10;;;;;;;45.08;27.42;;;;;;;10.25;73.42;99555.00;4170465;28;20041;-69
2024/03/05 04:35:12;;;;;;;41.83;25.95;;;;;;;10.25;73.48;99550.47;4170388;28;20041;-69
2024/03/05 04:37:13;;;;;;;49.55;29.92;;;;;;;10.08;74.28;99562.00;4177561;28;20048;-69
2024/03/05 04:39:16;;;;;;;51.63;28.15;;;;;;;10.11;74.19;99554.53;4171699;28;20029;-69
2024/03/05 04:41:17;;;;;;;48.83;28.08;;;;;;;10.08;74.26;99551.34;4166026;28;20048;-69
2024/03/05 04:43:18;;;;;;;43.97;26.95;;;;;;;10.10;74.48;99550.22;4172991;28;20018;-70
2024/03/05 04:45:19;;;;;;;42.20;26.85;;;;;;;10.13;74.22;99560.56;4173421;28;20075;-70
2024/03/05 04:47:20;;;;;;;49.88;27.35;;;;;;;10.12;74.26;99550.88;4173035;28;20025;-71
2024/03/05 04:49:21;;;;;;;46.63;27.52;;;;;;;10.11;74.41;99559.88;4172743;28;20021;-70
2024/03/05 04:51:21;;;;;;;44.40;27.33;;;;;;;10.15;74.01;99549.75;4172931;28;20048;-69
2024/03/05 04:53:22;;;;;;;49.25;27.92;;;;;;;10.13;74.30;99560.56;4172984;28;20424;-69
2024/03/05 04:55:23;;;;;;;49.03;27.73;;;;;;;10.10;74.44;99560.91;4173155;28;20041;-69
2024/03/05 04:57:23;;;;;;;51.67;29.02;;;;;;;10.03;74.73;99557.13;4170920;28;20532;-71
2024/03/05 04:59:24;;;;;;;49.70;27.83;;;;;;;10.03;74.72;99557.13;4172862;28;20029;-68
2024/03/05 05:01:24;;;;;;;43.10;27.40;;;;;;;10.11;74.32;99559.88;4169330;28;20397;-68
2024/03/05 05:03:25;;;;;;;41.63;25.85;;;;;;;10.15;74.28;99561.25;4175292;28;20029;-70
2024/03/05 05:05:25;;;;;;;46.72;26.25;;;;;;;10.13;74.58;99557.91;4165421;28;20109;-69
2024/03/05 05:07:26;;;;;;;48.78;26.83;;;;;;;10.16;74.30;99562.09;4168277;28;20021;-70
2024/03/05 05:09:27;;;;;;;42.78;26.73;;;;;;;10.13;74.55;99557.91;4169891;28;20029;-70
2024/03/05 05:11:27;;;;;;;47.42;27.08;;;;;;;10.05;74.40;99554.34;4161349;28;20168;-70
2024/03/05 05:13:27;;;;;;;43.50;27.33;;;;;;;10.18;74.44;99561.94;4163650;28;20041;-70
2024/03/05 05:15:28;;;;;;;44.90;26.97;;;;;;;10.23;74.15;99567.66;4164815;28;20260;-70
2024/03/05 05:17:29;;;;;;;;;;;;;;;10.17;74.25;99557.59;4171508;28;20600;-70
2024/03/05 05:19:29;;;;;;;40.83;24.50;;;;;;;10.26;73.82;99556.66;4171886;28;19912;-70
2024/03/05 05:21:31;;;;;;;43.78;26.67;;;;;;;10.18;74.05;99549.41;4172382;28;20033;-70
2024/03/05 05:23:32;;;;;;;47.22;27.70;;;;;;;10.18;74.38;99561.94;4171526;28;20029;-70
2024/03/05 05:25:32;;;;;;;49.65;28.45;;;;;;;10.19;74.35;99553.78;4172538;28;20059;-70
2024/03/05 05:27:32;;;;;;;44.60;26.35;;;;;;;10.23;74.08;99551.63;4164275;28;20098;-70
2024/03/05 05:29:33;;;;;;;45.30;27.08;;;;;;;10.18;74.34;99556.59;4164243;28;20430;-70
2024/03/05 05:31:34;;;;;;;43.97;26.80;;;;;;;10.20;74.31;99554.63;4165220;28;20060;-69
2024/03/05 05:33:35;;;;;;;44.10;26.08;;;;;;;10.21;74.23;99554.47;4164405;28;20024;-70
2024/03/05 05:35:37;;;;;;;47.85;28.83;;;;;;;10.19;74.34;99558.28;4164310;28;20474;-69
2024/03/05 05:37:37;;;;;;;52.80;28.85;;;;;;;10.14;74.44;99558.75;4163790;28;20025;-70
2024/03/05 05:39:38;;;;;;;49.83;28.92;;;;;;;10.21;74.24;99550.94;4164061;28;20029;-69
2024/03/05 05:41:38;;;;;;;45.90;28.30;;;;;;;10.24;74.18;99555.97;4164242;28;20536;-69
2024/03/05 05:43:40;;;;;;;44.63;26.65;;;;;;;10.34;73.74;99555.91;4167677;28;20269;-70
2024/03/05 05:45:41;;;;;;;42.88;26.48;;;;;;;10.33;73.92;99548.88;4178255;28;20025;-70
2024/03/05 05:47:51;;;;;;;44.92;26.98;;;;;;;10.33;73.83;99551.56;4176228;28;20060;-70
2024/03/05 05:49:52;;;;;;;43.85;26.45;;;;;;;10.41;73.61;99549.78;4177665;28;20040;-70
2024/03/05 05:51:53;;;;;;;43.28;24.08;;;;;;;10.48;73.17;99557.22;4178781;28;20109;-70
2024/03/05 05:53:53;;;;;;;;;;;;;;;10.64;72.78;99564.47;4178380;28;20587;-71
2024/03/05 05:55:54;;;;;;;41.40;23.83;;;;;;;10.60;72.60;99555.94;4176854;28;19916;-68
2024/03/05 05:57:56;;;;;;;30.80;20.83;;;;;;;10.71;72.43;99562.88;4166954;28;20583;-70
2024/03/05 05:59:57;;;;;;;33.95;20.38;;;;;;;10.74;72.11;99562.53;4165116;28;20502;-70
2024/03/05 06:01:57;;;;;;;34.95;22.73;;;;;;;10.75;72.26;99562.41;4163514;28;20100;-70
2024/03/05 06:03:58;;;;;;;33.43;21.07;;;;;;;10.76;72.21;99568.56;4163738;28;20033;-70
2024/03/05 06:05:59;;;;;;;;;;;;;;;10.59;72.16;99562.28;4164140;28;20292;-70
2024/03/05 06:08:00;;;;;;;40.57;23.13;;;;;;;10.55;72.77;99571.63;4164002;28;19908;-70
2024/03/05 06:10:00;;;;;;;;;;;;;;;10.34;73.19;99567.41;4168288;28;20029;-70
2024/03/05 06:12:03;;;;;;;49.77;29.37;;;;;;;10.26;74.01;99573.53;4167560;28;20440;-70
2024/03/05 06:14:06;;;;;;;51.10;26.55;;;;;;;10.34;73.44;99571.94;4171200;28;20029;-70
2024/03/05 06:16:07;;;;;;;47.17;27.08;;;;;;;10.27;73.60;99574.38;4174269;28;20033;-71
2024/03/05 06:18:08;;;;;;;48.55;28.90;;;;;;;10.30;73.63;99574.06;4173539;28;20039;-70
2024/03/05 06:20:11;;;;;;;43.95;26.83;;;;;;;10.30;73.44;99582.06;4173005;28;20552;-69
2024/03/05 06:22:12;;;;;;;43.22;26.30;;;;;;;10.27;73.75;99585.88;4175793;28;20043;-71
2024/03/05 06:24:13;;;;;;;53.05;28.63;;;;;;;10.18;74.05;99581.47;4175059;28;20108;-70
2024/03/05 06:26:14;;;;;;;47.50;28.35;;;;;;;10.20;74.15;99584.84;4176759;28;20037;-71
2024/03/05 06:28:14;;;;;;;46.63;27.02;;;;;;;10.20;74.11;99584.00;4176631;28;20059;-70
2024/03/05 06:30:17;;;;;;;51.00;27.17;;;;;;;10.15;74.32;99592.47;4174042;28;20037;-70
2024/03/05 06:32:19;;;;;;;50.47;29.25;;;;;;;10.04;74.81;99582.84;4173024;28;20053;-70
2024/03/05 06:34:19;;;;;;;47.38;27.00;;;;;;;10.08;74.73;99584.25;4162214;28;20018;-70
2024/03/05 06:36:20;;;;;;;44.72;27.77;;;;;;;10.17;74.41;99592.31;4169211;28;20029;-71
2024/03/05 06:38:21;;;;;;;48.97;27.30;;;;;;;10.23;74.08;99589.03;4171038;28;20033;-70
2024/03/05 06:40:22;;;;;;;42.90;26.45;;;;;;;10.21;74.10;99591.84;4170945;28;20052;-70
2024/03/05 06:42:24;;;;;;;48.47;27.63;;;;;;;10.15;74.27;99595.97;4163583;28;20083;-72
2024/03/05 06:44:25;;;;;;;;;;;;;;;10.07;74.49;99605.72;4177172;28;20029;-70
2024/03/05 06:46:29;;;;;;;53.15;27.75;;;;;;;10.18;74.39;99604.69;4163831;28;20265;-70
2024/03/05 06:48:33;;;;;;;42.65;26.15;;;;;;;10.13;74.43;99608.63;4171340;28;20034;-69
2024/03/05 06:50:34;;;;;;;43.75;26.02;;;;;;;10.29;74.12;99601.78;4170973;28;20029;-70
2024/03/05 06:57:23;;;;;;;47.50;26.77;;;;;;;10.36;73.81;99610.84;4167482;28;20072;-70
2024/03/05 06:59:23;;;;;;;42.10;25.67;;;;;;;10.42;73.66;99609.44;4170993;28;20027;-69
2024/03/05 07:01:27;;;;;;;45.15;27.45;;;;;;;10.47;73.38;99603.63;4162956;28;20132;-70
2024/03/05 07:03:28;;;;;;;45.90;27.40;;;;;;;10.43;73.51;99609.28;4170051;28;20072;-70
2024/03/05 07:05:28;;;;;;;43.97;26.45;;;;;;;10.37;73.90;99609.00;4170605;28;20037;-69
2024/03/05 07:07:29;;;;;;;50.05;28.35;;;;;;;10.23;74.39;99602.38;4170158;28;20133;-70
2024/03/05 07:09:31;;;;;;;44.90;26.20;;;;;;;10.19;74.38;99614.38;4170574;28;20063;-70
2024/03/05 07:11:33;;;;;;;46.47;28.00;;;;;;;10.20;74.54;99621.41;4170414;28;20029;-71
2024/03/05 07:13:38;;;;;;;48.78;28.35;;;;;;;10.14;74.66;99614.84;4175237;28;20033;-69
2024/03/05 07:15:38;;;;;;;49.00;27.55;;;;;;;10.15;74.54;99620.03;4169725;28;20033;-71
2024/03/05 07:17:39;;;;;;;49.05;27.92;;;;;;;10.09;75.02;99628.66;4170407;28;20465;-70
2024/03/05 07:19:39;;;;;;;51.87;30.67;;;;;;;10.04;75.38;99622.91;4170753;28;20793;-71
2024/03/05 07:21:40;;;;;;;49.37;26.43;;;;;;;10.13;75.04;99623.84;4170599;28;20255;-72
2024/03/05 07:23:40;;;;;;;54.08;27.52;;;;;;;10.22;74.87;99614.06;4169992;28;20283;-71
2024/03/05 07:25:42;;;;;;;48.63;28.30;;;;;;;10.18;75.06;99629.56;4170556;28;20078;-68
2024/03/05 07:27:47;;;;;;;51.92;27.13;;;;;;;10.17;75.21;99624.38;4170827;28;20021;-71
2024/03/05 07:29:47;;;;;;;48.42;27.15;;;;;;;10.23;74.99;99621.94;4170086;28;20068;-72
2024/03/05 07:31:49;;;;;;;51.92;26.88;;;;;;;10.25;74.98;99624.44;4161709;28;20033;-71
2024/03/05 07:33:50;;;;;;;49.25;27.25;;;;;;;10.25;75.07;99624.44;4162929;28;20053;-71
2024/03/05 07:35:50;;;;;;;50.63;28.35;;;;;;;10.24;75.31;99625.44;4170256;28;20079;-69
2024/03/05 07:37:50;;;;;;;58.07;28.30;;;;;;;10.21;75.38;99623.06;4169920;28;20029;-69
2024/03/05 07:39:51;;;;;;;51.50;27.92;;;;;;;10.21;75.45;99634.59;4168935;28;20049;-70
2024/03/05 07:41:51;;;;;;;49.33;28.17;;;;;;;10.19;75.36;99630.41;4170189;28;20030;-69
2024/03/05 07:43:52;;;;;;;47.07;27.57;;;;;;;10.20;75.63;99627.56;4168425;28;20120;-70
2024/03/05 07:45:52;;;;;;;47.77;28.13;;;;;;;10.18;75.74;99634.06;4168743;28;20276;-69
2024/03/05 07:47:53;;;;;;;46.47;27.23;;;;;;;10.18;75.96;99642.09;4169598;28;20347;-70
2024/03/05 07:49:53;;;;;;;44.75;26.27;;;;;;;10.24;75.76;99638.78;4170798;28;20588;-70
2024/03/05 07:51:53;;;;;;;46.63;26.63;;;;;;;10.21;75.71;99628.41;4170689;28;20033;-71
2024/03/05 07:53:55;;;;;;;49.05;27.08;;;;;;;10.24;75.74;99641.47;4170996;28;20051;-69
2024/03/05 07:55:57;;;;;;;48.13;25.90;;;;;;;10.27;75.44;99641.16;4178042;28;20035;-70
2024/03/05 07:57:57;;;;;;;52.42;28.33;;;;;;;10.06;76.30;99636.13;4176823;28;20029;-70
2024/03/05 07:59:58;;;;;;;47.95;28.65;;;;;;;10.25;75.71;99643.97;4178498;28;20135;-71
2024/03/05 08:01:58;;;;;;;53.38;27.38;;;;;;;10.20;75.67;99642.78;4178260;28;20040;-71
2024/03/05 08:03:59;;;;;;;50.25;27.73;;;;;;;10.26;75.47;99636.81;4178115;28;20458;-71
2024/03/05 08:06:00;;;;;;;51.53;26.95;;;;;;;10.23;75.61;99642.44;4178189;28;20030;-70
2024/03/05 08:08:00;;;;;;;48.05;28.52;;;;;;;10.08;76.34;99645.66;4177368;28;20020;-69
2024/03/05 08:10:08;;;;;;;50.42;28.42;;;;;;;10.04;76.67;99649.63;4178123;28;20102;-69
2024/03/05 08:12:09;;;;;;;52.63;29.05;;;;;;;10.01;76.69;99654.41;4177588;28;20043;-70
2024/03/05 08:14:09;;;;;;;57.67;28.02;;;;;;;10.10;76.32;99653.50;4172025;28;20021;-69
2024/03/05 08:16:09;;;;;;;54.60;28.83;;;;;;;10.14;76.23;99653.06;4172977;28;20074;-70
2024/03/05 08:18:12;;;;;;;53.53;28.30;;;;;;;10.19;76.25;99654.44;4167897;28;20055;-69
2024/03/05 08:20:14;;;;;;;45.95;26.48;;;;;;;10.23;75.69;99653.13;4173241;28;20072;-70
2024/03/05 08:22:14;;;;;;;46.03;27.83;;;;;;;10.43;75.11;99649.34;4168458;28;20025;-69
2024/03/05 08:24:15;;;;;;;39.92;24.70;;;;;;;10.51;74.61;99653.94;4172188;28;20122;-71
2024/03/05 08:26:15;;;;;;;47.25;26.25;;;;;;;10.33;75.33;99647.72;4174965;28;20595;-70
2024/03/05 08:28:15;;;;;;;50.70;28.48;;;;;;;10.26;75.72;99650.16;4180471;28;20683;-70
2024/03/05 08:30:19;;;;;;;45.53;27.30;;;;;;;10.37;75.08;99651.75;4181226;28;20389;-70
2024/03/05 08:32:20;;;;;;;46.83;26.95;;;;;;;10.39;75.17;99655.16;4181083;28;20440;-70
2024/03/05 08:34:21;;;;;;;44.88;27.52;;;;;;;10.36;75.04;99656.28;4180946;28;20028;-69
2024/03/05 08:36:22;;;;;;;54.92;31.90;;;;;;;10.26;75.68;99653.66;4180872;28;20025;-69
2024/03/05 08:38:22;;;;;;;55.67;32.78;;;;;;;10.13;75.82;99654.03;4181222;28;20024;-70
2024/03/05 08:40:24;;;;;;;57.30;33.63;;;;;;;10.14;75.69;99650.38;4180553;28;20049;-71
2024/03/05 08:42:24;;;;;;;55.72;29.75;;;;;;;9.86;76.32;99656.75;4180616;28;20058;-70
2024/03/05 08:44:25;;;;;;;46.13;26.98;;;;;;;10.13;75.11;99650.56;4180848;28;20108;-70
2024/03/05 08:46:25;;;;;;;41.22;26.00;;;;;;;9.86;75.49;99656.75;4183393;28;20509;-70
2024/03/05 08:48:28;;;;;;;40.33;24.27;;;;;;;9.91;75.21;99655.31;4186074;28;20056;-70
2024/03/05 08:50:29;;;;;;;38.80;22.52;;;;;;;9.87;75.06;99658.44;4186043;28;20263;-70
2024/03/05 08:52:30;;;;;;;37.80;22.15;;;;;;;10.03;73.98;99661.28;4187254;28;20056;-71
2024/03/05 08:54:31;;;;;;;30.92;18.98;;;;;;;10.08;73.74;99656.34;4185404;28;20017;-70
2024/03/05 08:56:31;;;;;;;32.22;19.88;;;;;;;10.02;73.56;99664.94;4180699;28;20033;-70
2024/03/05 08:58:32;;;;;;;31.92;19.48;;;;;;;10.07;73.45;99669.84;4179674;28;20037;-70
2024/03/05 09:00:33;;;;;;;31.00;19.63;;;;;;;10.19;72.77;99662.47;4180870;28;20032;-70
2024/03/05 09:02:34;;;;;;;28.48;17.73;;;;;;;10.29;72.33;99669.41;4178948;28;20513;-70
2024/03/05 09:04:35;;;;;;;29.27;19.52;;;;;;;10.14;72.61;99669.09;4180791;28;20036;-70
2024/03/05 09:06:37;;;;;;;27.95;18.42;;;;;;;10.20;72.32;99674.84;4181972;28;20067;-69
2024/03/05 09:08:40;;;;;;;24.77;17.15;;;;;;;10.21;72.32;99672.00;4181448;28;20528;-71
2024/03/05 09:10:41;;;;;;;27.25;17.40;;;;;;;10.25;72.27;99673.34;4180250;28;20036;-71
2024/03/05 09:12:41;;;;;;;29.05;17.95;;;;;;;10.39;71.66;99668.53;4179561;28;20016;-71
2024/03/05 09:14:42;;;;;;;28.58;18.73;;;;;;;10.15;72.32;99670.78;4165233;28;20025;-71
2024/03/05 09:16:43;;;;;;;28.70;18.13;;;;;;;10.16;72.62;99674.25;4171627;28;20029;-71
2024/03/05 09:18:43;;;;;;;25.88;18.13;;;;;;;10.06;72.63;99669.00;4170553;28;20027;-71
2024/03/05 09:20:44;;;;;;;26.60;16.25;;;;;;;9.95;72.59;99679.88;4172177;28;20503;-71
2024/03/05 09:22:45;;;;;;;;;;;;;;;9.96;72.06;99668.22;4171827;28;20028;-72